Terminal Aerodrome Forecast
Issued by NWS

Home | Current Version | Previous Version | Text Only | Print | Product List | Glossary On
Versions: 1 2 3 4 5 6 7 8 9 10 11 12 13 14 15 16 17 18 19
000
FTUS41 KBTV 151722
TAFRUT
TAF
KRUT 151722Z 1518/1618 16005KT P6SM BKN150
     FM160100 15004KT P6SM VCSH OVC050
      TEMPO 1608/1612 2SM -SN BR OVC025
     FM161200 25004KT P6SM OVC040=

USA.gov is the U.S. government's official web portal to all federal, state and local government web resources and services.